Kaprifol — 5BXX2 — position and weather

sailwx.info

Track history (hours):
 
Tides and Currents Weather Stations Pressure Air Temp Water Temp Dewpoint Dewpoint Depression Visibility Wind Speed Wind Dir Waves Ship Positions

Kaprifol

Last reported at 2014-Oct-02 01:33 UTC. Time now 2014-Oct-02 02:36 UTC.
Position N 52°28' E 004°36'.

Length 90 m; draft 4.8 m.

Type: Tanker. MMSI: 210445000.

Date/timePositionNaut miles runAvg speedWind from/ knotsBaromVisibWave heightAir tempDewpointWater temp
2014-Oct-02 01:33N 52°28' E 004°36'6 5.7
2014-Oct-02 00:34N 52°26' E 004°45'3 3.3
2014-Oct-01 23:31N 52°25' E 004°50'0 0.0
2014-Oct-01 22:31N 52°25' E 004°50'0 0.0
2014-Oct-01 21:31N 52°25' E 004°50'0 0.0
2014-Oct-01 20:28N 52°25' E 004°50'0 0.0
2014-Oct-01 19:31N 52°25' E 004°50'0 0.0
2014-Oct-01 18:31N 52°25' E 004°50'0 0.0
2014-Oct-01 17:31N 52°25' E 004°50'0 0.0
2014-Oct-01 16:28N 52°25' E 004°50'0 0.0
2014-Oct-01 15:31N 52°25' E 004°50'0 0.0
2014-Oct-01 14:31N 52°25' E 004°50'0 0.0
2014-Oct-01 13:31N 52°25' E 004°50'0 0.0
2014-Oct-01 12:31N 52°25' E 004°50'3 3.0
2014-Oct-01 11:34N 52°26' E 004°46'6 6.0
2014-Oct-01 10:33N 52°28' E 004°37'1 0.9
2014-Oct-01 09:33N 52°28' E 004°35'3 3.4
2014-Oct-01 08:33N 52°28' E 004°30'1010.2
2014-Oct-01 07:33N 52°29' E 004°13'9 8.9
2014-Oct-01 06:32N 52°37' E 004°04'8010.1
2014-Sep-30 22:33N 53°53' E 004°46'1110.5
2014-Sep-30 21:33N 54°04' E 004°50'1510.3
2014-Sep-30 20:04N 54°17' E 005°01'22110.8
2014-Sep-29 23:33N 57°22' E 008°39'1111.1
2014-Sep-29 22:33N 57°31' E 008°50'1010.4
2014-Sep-29 21:33N 57°40' E 009°01'1110.2
2014-Sep-29 20:28N 57°49' E 009°13'1010.5
2014-Sep-29 19:33N 57°57' E 009°23'1110.5
2014-Sep-29 18:32N 58°06' E 009°35'1010.4
2014-Sep-29 17:33N 58°14' E 009°45'1110.6
2014-Sep-29 16:33N 58°23' E 009°56'1110.4
2014-Sep-29 15:27N 58°33' E 010°08'2110.5
2014-Sep-29 13:26N 58°50' E 010°30'910.3
2014-Sep-29 12:33N 58°58' E 010°40'9 9.0
2014-Sep-29 11:33N 59°01' E 010°57'1010.1
2014-Sep-29 10:33N 59°11' E 010°57'6 6.5
2014-Sep-29 09:33N 59°16' E 011°05'1 0.5
2014-Sep-29 08:23N 59°16' E 011°06'0 0.0
2014-Sep-29 07:11N 59°16' E 011°06'0 0.0
2014-Sep-29 06:26N 59°16' E 011°06'0 0.0
2014-Sep-29 05:32N 59°16' E 011°06'0 0.0
2014-Sep-29 04:32N 59°16' E 011°06'0 0.0
2014-Sep-29 03:32N 59°16' E 011°06'0 0.0
2014-Sep-29 02:29N 59°16' E 011°06'0 0.0
2014-Sep-28 23:26N 59°16' E 011°06'0 0.0
2014-Sep-28 11:20N 59°16' E 011°06'0 0.0
2014-Sep-28 10:32N 59°16' E 011°06'0 0.0
2014-Sep-28 09:32N 59°16' E 011°06'0 0.0
2014-Sep-28 06:26N 59°16' E 011°06'0 0.0
2014-Sep-28 05:32N 59°16' E 011°06'0 0.0
2014-Sep-28 03:26N 59°16' E 011°06'0 0.0
2014-Sep-28 02:13N 59°16' E 011°06'0 0.0
2014-Sep-28 01:31N 59°16' E 011°06'0 0.0
2014-Sep-28 00:31N 59°16' E 011°06'0 0.0
2014-Sep-27 23:13N 59°16' E 011°06'0 0.0
2014-Sep-27 22:31N 59°16' E 011°06'0 0.0
2014-Sep-27 21:25N 59°16' E 011°06'0 0.0
2014-Sep-27 20:31N 59°16' E 011°06'0 0.0
2014-Sep-27 19:25N 59°16' E 011°06'0 0.0
2014-Sep-27 18:19N 59°16' E 011°06'0 0.0
2014-Sep-27 17:31N 59°16' E 011°06'0 0.0
2014-Sep-27 16:31N 59°16' E 011°06'0 0.0
2014-Sep-27 15:10N 59°16' E 011°06'0 0.0
2014-Sep-27 14:22N 59°16' E 011°06'0 0.0
2014-Sep-27 13:31N 59°16' E 011°06'0 0.0
2014-Sep-27 12:31N 59°16' E 011°06'0 0.0
2014-Sep-27 11:31N 59°16' E 011°06'1 1.1
2014-Sep-27 10:32N 59°16' E 011°04'7 6.7
2014-Sep-27 09:33N 59°10' E 010°57'3 2.9
2014-Sep-27 08:31N 59°08' E 010°59'0 0.0
2014-Sep-27 07:28N 59°08' E 010°59'0 0.0
2014-Sep-27 06:31N 59°08' E 010°59'0 0.0
2014-Sep-27 05:31N 59°08' E 010°59'0 0.0
2014-Sep-27 04:25N 59°08' E 010°59'0 0.0
2014-Sep-27 03:28N 59°08' E 010°59'0 0.0
2014-Sep-27 02:31N 59°08' E 010°59'0 0.0
2014-Sep-27 01:31N 59°08' E 010°59'0 0.0
2014-Sep-27 00:31N 59°08' E 010°59'0 0.0
2014-Sep-26 23:28N 59°08' E 010°59'0 0.0
2014-Sep-26 22:31N 59°08' E 010°59'5 5.2
2014-Sep-26 21:33N 59°03' E 010°58'5 4.6
2014-Sep-26 20:33N 59°02' E 010°50'3 2.8
2014-Sep-26 19:33N 59°02' E 010°44'0 0.4
2014-Sep-26 18:33N 59°01' E 010°44'9 9.2
2014-Sep-26 17:33N 58°56' E 010°30'6410.6
2014-Sep-26 11:31N 58°17' E 008°52'1111.1
2014-Sep-26 10:33N 58°11' E 008°35'1111.4
2014-Sep-26 09:34N 58°04' E 008°18'3615.3
2014-Sep-26 07:11N 57°55' E 007°12'25 7.9
2014-Sep-26 04:04N 58°06' E 006°30'510.7
2014-Sep-26 03:33N 58°09' E 006°22'1111.3
2014-Sep-26 02:33N 58°17' E 006°06'1211.5
2014-Sep-26 01:33N 58°24' E 005°49'2410.7
2014-Sep-25 23:20N 58°43' E 005°21'910.9
2014-Sep-25 22:33N 58°50' E 005°12'1110.7
2014-Sep-25 21:33N 58°59' E 005°01'1110.4
2014-Sep-25 20:33N 59°08' E 004°49'0 0.0
2014-Sep-24 03:27N 59°08' E 004°49'1010.8
2014-Sep-24 02:32N 59°07' E 005°09'1010.7
2014-Sep-24 01:33N 59°07' E 005°29'10 9.9
2014-Sep-24 00:33N 59°02' E 005°46'4 3.5
2014-Sep-23 23:31N 58°58' E 005°45'0 0.0
2014-Sep-23 22:31N 58°58' E 005°45'0 0.0
2014-Sep-23 21:31N 58°58' E 005°45'0 0.0
2014-Sep-23 20:31N 58°58' E 005°45'0 0.0
2014-Sep-23 19:31N 58°58' E 005°45'0 0.0
2014-Sep-23 18:31N 58°58' E 005°45'0 0.0
2014-Sep-23 17:31N 58°58' E 005°45'1 1.4
2014-Sep-23 16:33N 58°59' E 005°47'7 7.3
2014-Sep-23 15:33N 59°03' E 005°35'10 9.5
2014-Sep-23 14:33N 59°06' E 005°18'10 9.7
2014-Sep-23 13:33N 59°12' E 005°03'  
Track history (hours):
 
Tides and Currents Weather Stations Pressure Air Temp Water Temp Dewpoint Dewpoint Depression Visibility Wind Speed Wind Dir Waves Ship Positions

Kaprifol

Last reported at 2014-Oct-02 01:33 UTC. Time now 2014-Oct-02 02:36 UTC.
Position N 52°28' E 004°36'.

Length 90 m; draft 4.8 m.

Type: Tanker. MMSI: 210445000.

Date/timePositionNaut miles runAvg speedWind from/ knotsBaromVisibWave heightAir tempDewpointWater temp
2014-Oct-02 01:33N 52°28' E 004°36'6 5.7
2014-Oct-02 00:34N 52°26' E 004°45'3 3.3
2014-Oct-01 23:31N 52°25' E 004°50'0 0.0
2014-Oct-01 22:31N 52°25' E 004°50'0 0.0
2014-Oct-01 21:31N 52°25' E 004°50'0 0.0
2014-Oct-01 20:28N 52°25' E 004°50'0 0.0
2014-Oct-01 19:31N 52°25' E 004°50'0 0.0
2014-Oct-01 18:31N 52°25' E 004°50'0 0.0
2014-Oct-01 17:31N 52°25' E 004°50'0 0.0
2014-Oct-01 16:28N 52°25' E 004°50'0 0.0
2014-Oct-01 15:31N 52°25' E 004°50'0 0.0
2014-Oct-01 14:31N 52°25' E 004°50'0 0.0
2014-Oct-01 13:31N 52°25' E 004°50'0 0.0
2014-Oct-01 12:31N 52°25' E 004°50'3 3.0
2014-Oct-01 11:34N 52°26' E 004°46'6 6.0
2014-Oct-01 10:33N 52°28' E 004°37'1 0.9
2014-Oct-01 09:33N 52°28' E 004°35'3 3.4
2014-Oct-01 08:33N 52°28' E 004°30'1010.2
2014-Oct-01 07:33N 52°29' E 004°13'9 8.9
2014-Oct-01 06:32N 52°37' E 004°04'8010.1
2014-Sep-30 22:33N 53°53' E 004°46'1110.5
2014-Sep-30 21:33N 54°04' E 004°50'1510.3
2014-Sep-30 20:04N 54°17' E 005°01'22110.8
2014-Sep-29 23:33N 57°22' E 008°39'1111.1
2014-Sep-29 22:33N 57°31' E 008°50'1010.4
2014-Sep-29 21:33N 57°40' E 009°01'1110.2
2014-Sep-29 20:28N 57°49' E 009°13'1010.5
2014-Sep-29 19:33N 57°57' E 009°23'1110.5
2014-Sep-29 18:32N 58°06' E 009°35'1010.4
2014-Sep-29 17:33N 58°14' E 009°45'1110.6
2014-Sep-29 16:33N 58°23' E 009°56'1110.4
2014-Sep-29 15:27N 58°33' E 010°08'2110.5
2014-Sep-29 13:26N 58°50' E 010°30'910.3
2014-Sep-29 12:33N 58°58' E 010°40'9 9.0
2014-Sep-29 11:33N 59°01' E 010°57'1010.1
2014-Sep-29 10:33N 59°11' E 010°57'6 6.5
2014-Sep-29 09:33N 59°16' E 011°05'1 0.5
2014-Sep-29 08:23N 59°16' E 011°06'0 0.0
2014-Sep-29 07:11N 59°16' E 011°06'0 0.0
2014-Sep-29 06:26N 59°16' E 011°06'0 0.0
2014-Sep-29 05:32N 59°16' E 011°06'0 0.0
2014-Sep-29 04:32N 59°16' E 011°06'0 0.0
2014-Sep-29 03:32N 59°16' E 011°06'0 0.0
2014-Sep-29 02:29N 59°16' E 011°06'0 0.0
2014-Sep-28 23:26N 59°16' E 011°06'0 0.0
2014-Sep-28 11:20N 59°16' E 011°06'0 0.0
2014-Sep-28 10:32N 59°16' E 011°06'0 0.0
2014-Sep-28 09:32N 59°16' E 011°06'0 0.0
2014-Sep-28 06:26N 59°16' E 011°06'0 0.0
2014-Sep-28 05:32N 59°16' E 011°06'0 0.0
2014-Sep-28 03:26N 59°16' E 011°06'0 0.0
2014-Sep-28 02:13N 59°16' E 011°06'0 0.0
2014-Sep-28 01:31N 59°16' E 011°06'0 0.0
2014-Sep-28 00:31N 59°16' E 011°06'0 0.0
2014-Sep-27 23:13N 59°16' E 011°06'0 0.0
2014-Sep-27 22:31N 59°16' E 011°06'0 0.0
2014-Sep-27 21:25N 59°16' E 011°06'0 0.0
2014-Sep-27 20:31N 59°16' E 011°06'0 0.0
2014-Sep-27 19:25N 59°16' E 011°06'0 0.0
2014-Sep-27 18:19N 59°16' E 011°06'0 0.0
2014-Sep-27 17:31N 59°16' E 011°06'0 0.0
2014-Sep-27 16:31N 59°16' E 011°06'0 0.0
2014-Sep-27 15:10N 59°16' E 011°06'0 0.0
2014-Sep-27 14:22N 59°16' E 011°06'0 0.0
2014-Sep-27 13:31N 59°16' E 011°06'0 0.0
2014-Sep-27 12:31N 59°16' E 011°06'0 0.0
2014-Sep-27 11:31N 59°16' E 011°06'1 1.1
2014-Sep-27 10:32N 59°16' E 011°04'7 6.7
2014-Sep-27 09:33N 59°10' E 010°57'3 2.9
2014-Sep-27 08:31N 59°08' E 010°59'0 0.0
2014-Sep-27 07:28N 59°08' E 010°59'0 0.0
2014-Sep-27 06:31N 59°08' E 010°59'0 0.0
2014-Sep-27 05:31N 59°08' E 010°59'0 0.0
2014-Sep-27 04:25N 59°08' E 010°59'0 0.0
2014-Sep-27 03:28N 59°08' E 010°59'0 0.0
2014-Sep-27 02:31N 59°08' E 010°59'0 0.0
2014-Sep-27 01:31N 59°08' E 010°59'0 0.0
2014-Sep-27 00:31N 59°08' E 010°59'0 0.0
2014-Sep-26 23:28N 59°08' E 010°59'0 0.0
2014-Sep-26 22:31N 59°08' E 010°59'5 5.2
2014-Sep-26 21:33N 59°03' E 010°58'5 4.6
2014-Sep-26 20:33N 59°02' E 010°50'3 2.8
2014-Sep-26 19:33N 59°02' E 010°44'0 0.4
2014-Sep-26 18:33N 59°01' E 010°44'9 9.2
2014-Sep-26 17:33N 58°56' E 010°30'6410.6
2014-Sep-26 11:31N 58°17' E 008°52'1111.1
2014-Sep-26 10:33N 58°11' E 008°35'1111.4
2014-Sep-26 09:34N 58°04' E 008°18'3615.3
2014-Sep-26 07:11N 57°55' E 007°12'25 7.9
2014-Sep-26 04:04N 58°06' E 006°30'510.7
2014-Sep-26 03:33N 58°09' E 006°22'1111.3
2014-Sep-26 02:33N 58°17' E 006°06'1211.5
2014-Sep-26 01:33N 58°24' E 005°49'2410.7
2014-Sep-25 23:20N 58°43' E 005°21'910.9
2014-Sep-25 22:33N 58°50' E 005°12'1110.7
2014-Sep-25 21:33N 58°59' E 005°01'1110.4
2014-Sep-25 20:33N 59°08' E 004°49'0 0.0
2014-Sep-24 03:27N 59°08' E 004°49'1010.8
2014-Sep-24 02:32N 59°07' E 005°09'1010.7
2014-Sep-24 01:33N 59°07' E 005°29'10 9.9
2014-Sep-24 00:33N 59°02' E 005°46'4 3.5
2014-Sep-23 23:31N 58°58' E 005°45'0 0.0
2014-Sep-23 22:31N 58°58' E 005°45'0 0.0
2014-Sep-23 21:31N 58°58' E 005°45'0 0.0
2014-Sep-23 20:31N 58°58' E 005°45'0 0.0
2014-Sep-23 19:31N 58°58' E 005°45'0 0.0
2014-Sep-23 18:31N 58°58' E 005°45'0 0.0
2014-Sep-23 17:31N 58°58' E 005°45'1 1.4
2014-Sep-23 16:33N 58°59' E 005°47'7 7.3
2014-Sep-23 15:33N 59°03' E 005°35'10 9.5
2014-Sep-23 14:33N 59°06' E 005°18'10 9.7
2014-Sep-23 13:33N 59°12' E 005°03'  

Dump ship's entire track history